Zim Alabama — V7VD5 — position and weather

sailwx.info

Track history (hours):
 
Tides and Currents Weather Stations Pressure Air Temp Water Temp Dewpoint Dewpoint Depression Visibility Wind Speed Wind Dir Waves Ship Positions

Zim Alabama

Last reported at 2018-Feb-25 02:41 UTC. Time now 2018-Feb-25 04:10 UTC.
Position N 40°57' E 001°49'.

Length 261 m; draft 11.6 m.

Type: Cargo ship. MMSI: 538004094.

Date/timePositionNaut miles runAvg speedWind from/ knotsBaromVisibWave heightAir tempDewpointWater temp
2018-Feb-25 02:41N 40°57' E 001°49'816.1
2018-Feb-25 02:11N 41°03' E 001°56'316.5
2018-Feb-25 02:00N 41°05' E 001°58'816.3
2018-Feb-25 01:29N 41°12' E 002°06'10 5.0
2018-Feb-24 23:31N 41°21' E 002°10'0 0.2
2018-Feb-24 23:28N 41°21' E 002°10'0 0.0
2018-Feb-24 22:58N 41°21' E 002°10'0 0.0
2018-Feb-24 22:28N 41°21' E 002°10'0 0.0
2018-Feb-24 21:58N 41°21' E 002°10'0 0.0
2018-Feb-24 21:28N 41°21' E 002°10'0 0.0
2018-Feb-24 20:58N 41°21' E 002°10'0 0.0
2018-Feb-24 20:28N 41°21' E 002°10'0 0.0
2018-Feb-24 19:58N 41°21' E 002°10'0 0.0
2018-Feb-24 19:28N 41°21' E 002°10'0 0.0
2018-Feb-24 18:58N 41°21' E 002°10'0 0.0
2018-Feb-24 18:28N 41°21' E 002°10'0 0.0
2018-Feb-24 17:58N 41°21' E 002°10'0 0.0
2018-Feb-24 17:28N 41°21' E 002°10'0 0.0
2018-Feb-24 16:58N 41°21' E 002°10'0 0.0
2018-Feb-24 16:28N 41°21' E 002°10'0 0.0
2018-Feb-24 15:58N 41°21' E 002°10'0 0.0
2018-Feb-24 15:28N 41°21' E 002°10'0 0.0
2018-Feb-24 14:58N 41°21' E 002°10'0 0.0
2018-Feb-24 14:19N 41°21' E 002°10'0 0.0
2018-Feb-24 13:58N 41°21' E 002°10'0 0.0
2018-Feb-24 13:28N 41°21' E 002°10'0 0.0
2018-Feb-24 12:58N 41°21' E 002°10'0 0.0
2018-Feb-24 12:28N 41°21' E 002°10'0 0.0
2018-Feb-24 11:58N 41°21' E 002°10'0 0.0
2018-Feb-24 11:28N 41°21' E 002°10'0 1.0
2018-Feb-24 11:01N 41°21' E 002°10'3 6.2
2018-Feb-24 10:30N 41°18' E 002°11'1 3.0
2018-Feb-24 10:01N 41°19' E 002°13'0 0.8
2018-Feb-24 09:28N 41°19' E 002°12'0 0.0
2018-Feb-24 08:58N 41°19' E 002°12'0 0.0
2018-Feb-24 08:28N 41°19' E 002°12'0 0.1
2018-Feb-24 07:58N 41°19' E 002°12'0 0.1
2018-Feb-24 07:28N 41°19' E 002°12'0 0.0
2018-Feb-24 06:58N 41°19' E 002°12'0 0.0
2018-Feb-24 06:28N 41°19' E 002°12'0 0.1
2018-Feb-24 05:58N 41°19' E 002°12'0 0.0
2018-Feb-24 05:28N 41°19' E 002°12'0 0.1
2018-Feb-24 04:58N 41°19' E 002°12'0 0.0
2018-Feb-24 04:28N 41°19' E 002°12'0 0.1
2018-Feb-24 03:58N 41°19' E 002°12'0 0.1
2018-Feb-24 03:28N 41°19' E 002°12'0 0.1
2018-Feb-24 02:58N 41°19' E 002°12'0 0.0
2018-Feb-24 02:28N 41°19' E 002°12'0 0.2
2018-Feb-24 01:58N 41°19' E 002°12'0 0.1
2018-Feb-24 01:28N 41°19' E 002°12'0 0.0
2018-Feb-24 00:58N 41°19' E 002°12'0 0.0
2018-Feb-24 00:28N 41°19' E 002°12'0 0.1
2018-Feb-23 23:58N 41°19' E 002°12'0 0.2
2018-Feb-23 23:28N 41°19' E 002°12'0 0.1
2018-Feb-23 22:58N 41°19' E 002°12'0 0.0
2018-Feb-23 22:28N 41°19' E 002°12'0 0.0
2018-Feb-23 21:58N 41°19' E 002°12'0 0.0
2018-Feb-23 21:28N 41°19' E 002°12'0 0.0
2018-Feb-23 20:58N 41°19' E 002°12'0 0.1
2018-Feb-23 20:28N 41°19' E 002°12'0 0.1
2018-Feb-23 19:58N 41°19' E 002°12'0 0.0
2018-Feb-23 19:28N 41°19' E 002°12'0 0.0
2018-Feb-23 18:58N 41°19' E 002°12'0 0.0
2018-Feb-23 18:28N 41°19' E 002°12'0 0.0
2018-Feb-23 17:58N 41°19' E 002°12'0 0.0
2018-Feb-23 17:28N 41°19' E 002°12'0 0.0
2018-Feb-23 16:58N 41°19' E 002°12'0 0.1
2018-Feb-23 16:28N 41°19' E 002°12'0 0.1
2018-Feb-23 15:58N 41°19' E 002°12'0 0.0
2018-Feb-23 15:28N 41°19' E 002°12'0 0.0
2018-Feb-23 14:58N 41°19' E 002°12'0 0.0
2018-Feb-23 14:28N 41°19' E 002°12'0 0.0
2018-Feb-23 13:58N 41°19' E 002°12'0 0.1
2018-Feb-23 13:28N 41°19' E 002°12'0 0.3
2018-Feb-23 12:55N 41°19' E 002°12'1 3.1
2018-Feb-23 12:30N 41°18' E 002°13'611.9
2018-Feb-23 12:00N 41°14' E 002°19'  
2018-Feb-20 13:14N 37°35' E 023°41'416.4
2018-Feb-20 13:00N 37°39' E 023°42'816.4
2018-Feb-20 12:30N 37°47' E 023°38'816.1
2018-Feb-20 12:00N 37°54' E 023°36'3 5.5
2018-Feb-20 11:30N 37°57' E 023°35'0 0.7
2018-Feb-20 10:59N 37°57' E 023°35'0 0.0
2018-Feb-20 10:29N 37°57' E 023°35'0 0.0
2018-Feb-20 09:59N 37°57' E 023°35'0 0.0
2018-Feb-20 09:29N 37°57' E 023°35'0 0.0
2018-Feb-20 08:59N 37°57' E 023°35'0 0.0
2018-Feb-20 08:29N 37°57' E 023°35'0 0.0
2018-Feb-20 07:59N 37°57' E 023°35'0 0.0
2018-Feb-20 07:26N 37°57' E 023°35'0 0.0
2018-Feb-20 06:59N 37°57' E 023°35'0 0.0
2018-Feb-20 06:29N 37°57' E 023°35'0 0.0
2018-Feb-20 05:59N 37°57' E 023°35'0 0.0
2018-Feb-20 05:29N 37°57' E 023°35'0 0.0
2018-Feb-20 04:59N 37°57' E 023°35'0 0.0
2018-Feb-20 04:29N 37°57' E 023°35'0 0.0
2018-Feb-20 03:59N 37°57' E 023°35'0 0.1
2018-Feb-20 03:29N 37°57' E 023°35'0 0.0
2018-Feb-20 02:59N 37°57' E 023°35'0 0.0
2018-Feb-20 02:29N 37°57' E 023°35'0 0.0
2018-Feb-20 01:59N 37°57' E 023°35'0 0.0
2018-Feb-20 01:29N 37°57' E 023°35'0 0.0
2018-Feb-20 00:59N 37°57' E 023°35'0 0.0
2018-Feb-20 00:29N 37°57' E 023°35'0 0.0
2018-Feb-19 23:59N 37°57' E 023°35'0 0.0
2018-Feb-19 23:29N 37°57' E 023°35'0 0.0
2018-Feb-19 22:59N 37°57' E 023°35'0 0.0
2018-Feb-19 22:29N 37°57' E 023°35'0 0.0
2018-Feb-19 21:59N 37°57' E 023°35'0 0.0
2018-Feb-19 21:29N 37°57' E 023°35'0 0.0
2018-Feb-19 20:59N 37°57' E 023°35'0 0.0
2018-Feb-19 20:29N 37°57' E 023°35'0 0.0
2018-Feb-19 19:59N 37°57' E 023°35'0 0.0
2018-Feb-19 19:29N 37°57' E 023°35'0 0.0
2018-Feb-19 18:59N 37°57' E 023°35'0 0.0
2018-Feb-19 18:29N 37°57' E 023°35'0 0.0
2018-Feb-19 17:59N 37°57' E 023°35'0 0.0
2018-Feb-19 17:29N 37°57' E 023°35'0 0.0
2018-Feb-19 16:59N 37°57' E 023°35'0 0.0
2018-Feb-19 16:29N 37°57' E 023°35'0 0.0
2018-Feb-19 15:59N 37°57' E 023°35'0 0.0
2018-Feb-19 15:29N 37°57' E 023°35'0 0.0
2018-Feb-19 14:56N 37°57' E 023°35'0 0.0
2018-Feb-19 14:29N 37°57' E 023°35'0 0.0
2018-Feb-19 13:59N 37°57' E 023°35'0 0.0
2018-Feb-19 13:29N 37°57' E 023°35'0 0.0
2018-Feb-19 12:59N 37°57' E 023°35'0 0.0
2018-Feb-19 12:29N 37°57' E 023°35'0 0.0
2018-Feb-19 11:56N 37°57' E 023°35'0 0.0
2018-Feb-19 11:29N 37°57' E 023°35'0 0.0
2018-Feb-19 10:59N 37°57' E 023°35'0 0.0
2018-Feb-19 10:29N 37°57' E 023°35'0 0.1
2018-Feb-19 10:00N 37°57' E 023°35'2 4.5
2018-Feb-19 09:30N 37°55' E 023°37'2 4.7
2018-Feb-19 09:00N 37°53' E 023°38'1 1.9
2018-Feb-19 08:30N 37°52' E 023°38'510.3
2018-Feb-19 08:00N 37°48' E 023°41'511.0
2018-Feb-19 07:30N 37°43' E 023°44'611.0
2018-Feb-19 07:00N 37°39' E 023°50'99 2.3
2018-Feb-17 12:41N 37°31' E 025°54'312.8
2018-Feb-17 12:28N 37°28' E 025°55'50913.3
2018-Feb-15 22:08N 32°57' E 034°42'514.1
2018-Feb-15 21:48N 32°56' E 034°48'414.0
2018-Feb-15 21:30N 32°55' E 034°53'  
Track history (hours):
 
Tides and Currents Weather Stations Pressure Air Temp Water Temp Dewpoint Dewpoint Depression Visibility Wind Speed Wind Dir Waves Ship Positions

Zim Alabama

Last reported at 2018-Feb-25 02:41 UTC. Time now 2018-Feb-25 04:10 UTC.
Position N 40°57' E 001°49'.

Length 261 m; draft 11.6 m.

Type: Cargo ship. MMSI: 538004094.

Date/timePositionNaut miles runAvg speedWind from/ knotsBaromVisibWave heightAir tempDewpointWater temp
2018-Feb-25 02:41N 40°57' E 001°49'816.1
2018-Feb-25 02:11N 41°03' E 001°56'316.5
2018-Feb-25 02:00N 41°05' E 001°58'816.3
2018-Feb-25 01:29N 41°12' E 002°06'10 5.0
2018-Feb-24 23:31N 41°21' E 002°10'0 0.2
2018-Feb-24 23:28N 41°21' E 002°10'0 0.0
2018-Feb-24 22:58N 41°21' E 002°10'0 0.0
2018-Feb-24 22:28N 41°21' E 002°10'0 0.0
2018-Feb-24 21:58N 41°21' E 002°10'0 0.0
2018-Feb-24 21:28N 41°21' E 002°10'0 0.0
2018-Feb-24 20:58N 41°21' E 002°10'0 0.0
2018-Feb-24 20:28N 41°21' E 002°10'0 0.0
2018-Feb-24 19:58N 41°21' E 002°10'0 0.0
2018-Feb-24 19:28N 41°21' E 002°10'0 0.0
2018-Feb-24 18:58N 41°21' E 002°10'0 0.0
2018-Feb-24 18:28N 41°21' E 002°10'0 0.0
2018-Feb-24 17:58N 41°21' E 002°10'0 0.0
2018-Feb-24 17:28N 41°21' E 002°10'0 0.0
2018-Feb-24 16:58N 41°21' E 002°10'0 0.0
2018-Feb-24 16:28N 41°21' E 002°10'0 0.0
2018-Feb-24 15:58N 41°21' E 002°10'0 0.0
2018-Feb-24 15:28N 41°21' E 002°10'0 0.0
2018-Feb-24 14:58N 41°21' E 002°10'0 0.0
2018-Feb-24 14:19N 41°21' E 002°10'0 0.0
2018-Feb-24 13:58N 41°21' E 002°10'0 0.0
2018-Feb-24 13:28N 41°21' E 002°10'0 0.0
2018-Feb-24 12:58N 41°21' E 002°10'0 0.0
2018-Feb-24 12:28N 41°21' E 002°10'0 0.0
2018-Feb-24 11:58N 41°21' E 002°10'0 0.0
2018-Feb-24 11:28N 41°21' E 002°10'0 1.0
2018-Feb-24 11:01N 41°21' E 002°10'3 6.2
2018-Feb-24 10:30N 41°18' E 002°11'1 3.0
2018-Feb-24 10:01N 41°19' E 002°13'0 0.8
2018-Feb-24 09:28N 41°19' E 002°12'0 0.0
2018-Feb-24 08:58N 41°19' E 002°12'0 0.0
2018-Feb-24 08:28N 41°19' E 002°12'0 0.1
2018-Feb-24 07:58N 41°19' E 002°12'0 0.1
2018-Feb-24 07:28N 41°19' E 002°12'0 0.0
2018-Feb-24 06:58N 41°19' E 002°12'0 0.0
2018-Feb-24 06:28N 41°19' E 002°12'0 0.1
2018-Feb-24 05:58N 41°19' E 002°12'0 0.0
2018-Feb-24 05:28N 41°19' E 002°12'0 0.1
2018-Feb-24 04:58N 41°19' E 002°12'0 0.0
2018-Feb-24 04:28N 41°19' E 002°12'0 0.1
2018-Feb-24 03:58N 41°19' E 002°12'0 0.1
2018-Feb-24 03:28N 41°19' E 002°12'0 0.1
2018-Feb-24 02:58N 41°19' E 002°12'0 0.0
2018-Feb-24 02:28N 41°19' E 002°12'0 0.2
2018-Feb-24 01:58N 41°19' E 002°12'0 0.1
2018-Feb-24 01:28N 41°19' E 002°12'0 0.0
2018-Feb-24 00:58N 41°19' E 002°12'0 0.0
2018-Feb-24 00:28N 41°19' E 002°12'0 0.1
2018-Feb-23 23:58N 41°19' E 002°12'0 0.2
2018-Feb-23 23:28N 41°19' E 002°12'0 0.1
2018-Feb-23 22:58N 41°19' E 002°12'0 0.0
2018-Feb-23 22:28N 41°19' E 002°12'0 0.0
2018-Feb-23 21:58N 41°19' E 002°12'0 0.0
2018-Feb-23 21:28N 41°19' E 002°12'0 0.0
2018-Feb-23 20:58N 41°19' E 002°12'0 0.1
2018-Feb-23 20:28N 41°19' E 002°12'0 0.1
2018-Feb-23 19:58N 41°19' E 002°12'0 0.0
2018-Feb-23 19:28N 41°19' E 002°12'0 0.0
2018-Feb-23 18:58N 41°19' E 002°12'0 0.0
2018-Feb-23 18:28N 41°19' E 002°12'0 0.0
2018-Feb-23 17:58N 41°19' E 002°12'0 0.0
2018-Feb-23 17:28N 41°19' E 002°12'0 0.0
2018-Feb-23 16:58N 41°19' E 002°12'0 0.1
2018-Feb-23 16:28N 41°19' E 002°12'0 0.1
2018-Feb-23 15:58N 41°19' E 002°12'0 0.0
2018-Feb-23 15:28N 41°19' E 002°12'0 0.0
2018-Feb-23 14:58N 41°19' E 002°12'0 0.0
2018-Feb-23 14:28N 41°19' E 002°12'0 0.0
2018-Feb-23 13:58N 41°19' E 002°12'0 0.1
2018-Feb-23 13:28N 41°19' E 002°12'0 0.3
2018-Feb-23 12:55N 41°19' E 002°12'1 3.1
2018-Feb-23 12:30N 41°18' E 002°13'611.9
2018-Feb-23 12:00N 41°14' E 002°19'  
2018-Feb-20 13:14N 37°35' E 023°41'416.4
2018-Feb-20 13:00N 37°39' E 023°42'816.4
2018-Feb-20 12:30N 37°47' E 023°38'816.1
2018-Feb-20 12:00N 37°54' E 023°36'3 5.5
2018-Feb-20 11:30N 37°57' E 023°35'0 0.7
2018-Feb-20 10:59N 37°57' E 023°35'0 0.0
2018-Feb-20 10:29N 37°57' E 023°35'0 0.0
2018-Feb-20 09:59N 37°57' E 023°35'0 0.0
2018-Feb-20 09:29N 37°57' E 023°35'0 0.0
2018-Feb-20 08:59N 37°57' E 023°35'0 0.0
2018-Feb-20 08:29N 37°57' E 023°35'0 0.0
2018-Feb-20 07:59N 37°57' E 023°35'0 0.0
2018-Feb-20 07:26N 37°57' E 023°35'0 0.0
2018-Feb-20 06:59N 37°57' E 023°35'0 0.0
2018-Feb-20 06:29N 37°57' E 023°35'0 0.0
2018-Feb-20 05:59N 37°57' E 023°35'0 0.0
2018-Feb-20 05:29N 37°57' E 023°35'0 0.0
2018-Feb-20 04:59N 37°57' E 023°35'0 0.0
2018-Feb-20 04:29N 37°57' E 023°35'0 0.0
2018-Feb-20 03:59N 37°57' E 023°35'0 0.1
2018-Feb-20 03:29N 37°57' E 023°35'0 0.0
2018-Feb-20 02:59N 37°57' E 023°35'0 0.0
2018-Feb-20 02:29N 37°57' E 023°35'0 0.0
2018-Feb-20 01:59N 37°57' E 023°35'0 0.0
2018-Feb-20 01:29N 37°57' E 023°35'0 0.0
2018-Feb-20 00:59N 37°57' E 023°35'0 0.0
2018-Feb-20 00:29N 37°57' E 023°35'0 0.0
2018-Feb-19 23:59N 37°57' E 023°35'0 0.0
2018-Feb-19 23:29N 37°57' E 023°35'0 0.0
2018-Feb-19 22:59N 37°57' E 023°35'0 0.0
2018-Feb-19 22:29N 37°57' E 023°35'0 0.0
2018-Feb-19 21:59N 37°57' E 023°35'0 0.0
2018-Feb-19 21:29N 37°57' E 023°35'0 0.0
2018-Feb-19 20:59N 37°57' E 023°35'0 0.0
2018-Feb-19 20:29N 37°57' E 023°35'0 0.0
2018-Feb-19 19:59N 37°57' E 023°35'0 0.0
2018-Feb-19 19:29N 37°57' E 023°35'0 0.0
2018-Feb-19 18:59N 37°57' E 023°35'0 0.0
2018-Feb-19 18:29N 37°57' E 023°35'0 0.0
2018-Feb-19 17:59N 37°57' E 023°35'0 0.0
2018-Feb-19 17:29N 37°57' E 023°35'0 0.0
2018-Feb-19 16:59N 37°57' E 023°35'0 0.0
2018-Feb-19 16:29N 37°57' E 023°35'0 0.0
2018-Feb-19 15:59N 37°57' E 023°35'0 0.0
2018-Feb-19 15:29N 37°57' E 023°35'0 0.0
2018-Feb-19 14:56N 37°57' E 023°35'0 0.0
2018-Feb-19 14:29N 37°57' E 023°35'0 0.0
2018-Feb-19 13:59N 37°57' E 023°35'0 0.0
2018-Feb-19 13:29N 37°57' E 023°35'0 0.0
2018-Feb-19 12:59N 37°57' E 023°35'0 0.0
2018-Feb-19 12:29N 37°57' E 023°35'0 0.0
2018-Feb-19 11:56N 37°57' E 023°35'0 0.0
2018-Feb-19 11:29N 37°57' E 023°35'0 0.0
2018-Feb-19 10:59N 37°57' E 023°35'0 0.0
2018-Feb-19 10:29N 37°57' E 023°35'0 0.1
2018-Feb-19 10:00N 37°57' E 023°35'2 4.5
2018-Feb-19 09:30N 37°55' E 023°37'2 4.7
2018-Feb-19 09:00N 37°53' E 023°38'1 1.9
2018-Feb-19 08:30N 37°52' E 023°38'510.3
2018-Feb-19 08:00N 37°48' E 023°41'511.0
2018-Feb-19 07:30N 37°43' E 023°44'611.0
2018-Feb-19 07:00N 37°39' E 023°50'99 2.3
2018-Feb-17 12:41N 37°31' E 025°54'312.8
2018-Feb-17 12:28N 37°28' E 025°55'50913.3
2018-Feb-15 22:08N 32°57' E 034°42'514.1
2018-Feb-15 21:48N 32°56' E 034°48'414.0
2018-Feb-15 21:30N 32°55' E 034°53'  

Dump ship's entire track history